| time (UTC) | temp C | wind direction | speed KPH | gust KPH | rain 1hr cm | rain 24hr cm | rain mn cm | humidity % | barometer mb |
| 20260510000011 | 10 | 159 | 9.7 | 24.1 | 0.43 | 0.48 | 0.48 | 89 | 1006.0 |
| 20260509234513 | 10 | 215 | 1.6 | 16.1 | 0.43 | 0.43 | 0.43 | 89 | 1007.1 |
| 20260509233010 | 10 | 279 | 3.2 | 16.1 | 0.30 | 0.30 | 0.30 | 88 | 1007.0 |
| 20260509231510 | 10 | 263 | 8.0 | 22.5 | 0.18 | 0.18 | 0.18 | 86 | 1007.5 |
| 20260509230009 | 12 | 248 | 16.1 | 41.8 | 0.03 | 0.03 | 0.03 | 81 | 1007.1 |
| 20260509224507 | 13 | 250 | 4.8 | 12.9 | 0.00 | 0.00 | 0.00 | 80 | 1005.0 |
| 20260509223008 | 13 | 274 | 1.6 | 6.4 | 0.00 | 0.00 | 0.00 | 79 | 1004.6 |
| 20260509221507 | 13 | 299 | 0.0 | 3.2 | 0.00 | 0.00 | 0.00 | 77 | 1004.2 |
| 20260509220006 | 13 | 299 | 0.0 | 4.8 | 0.00 | 0.00 | 0.00 | 78 | 1004.1 |
| 20260509214505 | 15 | 314 | 3.2 | 6.4 | 0.00 | 0.00 | 0.00 | 74 | 1004.2 |
| 20260509213006 | 15 | 250 | 0.0 | 4.8 | 0.00 | 0.00 | 0.00 | 74 | 1004.2 |
| 20260509211503 | 14 | 267 | 3.2 | 9.7 | 0.00 | 0.00 | 0.00 | 75 | 1004.4 |
| 20260509210002 | 14 | 257 | 4.8 | 14.5 | 0.00 | 0.00 | 0.00 | 78 | 1004.5 |
| 20260509204503 | 14 | 283 | 4.8 | 12.9 | 0.00 | 0.00 | 0.00 | 76 | 1004.6 |
| 20260509203000 | 15 | 269 | 3.2 | 11.3 | 0.00 | 0.00 | 0.00 | 75 | 1004.5 |
| 20260509201601 | 15 | 246 | 4.8 | 14.5 | 0.00 | 0.00 | 0.00 | 73 | 1004.8 |
| 20260509200058 | 16 | 292 | 4.8 | 12.9 | 0.00 | 0.00 | 0.00 | 71 | 1005.0 |
| 20260509194558 | 16 | 275 | 4.8 | 11.3 | 0.00 | 0.00 | 0.00 | 73 | 1005.1 |
| 20260509193056 | 16 | 282 | 6.4 | 16.1 | 0.00 | 0.00 | 0.00 | 71 | 1005.4 |
| 20260509191558 | 16 | 279 | 6.4 | 20.9 | 0.00 | 0.00 | 0.00 | 71 | 1005.8 |
| 20260509190056 | 15 | 259 | 8.0 | 14.5 | 0.00 | 0.00 | 0.00 | 74 | 1006.0 |
| 20260509184549 | 14 | 258 | 6.4 | 17.7 | 0.00 | 0.00 | 0.00 | 77 | 1006.4 |
| 20260509183050 | 15 | 254 | 6.4 | 16.1 | 0.00 | 0.00 | 0.00 | 74 | 1006.0 |
| 20260509181552 | 14 | 257 | 6.4 | 16.1 | 0.00 | 0.00 | 0.00 | 76 | 1006.3 |
| 20260509180045 | 15 | 297 | 6.4 | 14.5 | 0.00 | 0.00 | 0.00 | 74 | 1006.4 |
| 20260509174553 | 15 | 250 | 3.2 | 14.5 | 0.00 | 0.00 | 0.00 | 75 | 1006.6 |
| 20260509173048 | 15 | 249 | 9.7 | 22.5 | 0.00 | 0.00 | 0.00 | 73 | 1007.0 |
| 20260509171544 | 15 | 277 | 4.8 | 17.7 | 0.00 | 0.00 | 0.00 | 73 | 1007.0 |
| 20260509170041 | 15 | 211 | 3.2 | 19.3 | 0.00 | 0.00 | 0.00 | 76 | 1007.2 |
| 20260509164537 | 15 | 288 | 6.4 | 12.9 | 0.00 | 0.00 | 0.00 | 75 | 1007.2 |
| 20260509163036 | 13 | 265 | 4.8 | 11.3 | 0.00 | 0.00 | 0.00 | 77 | 1007.5 |
| 20260509161535 | 15 | 282 | 4.8 | 12.9 | 0.00 | 0.00 | 0.00 | 75 | 1007.4 |
| 20260509160035 | 13 | 247 | 4.8 | 12.9 | 0.00 | 0.00 | 0.00 | 78 | 1007.4 |
| 20260509154535 | 13 | 306 | 3.2 | 11.3 | 0.00 | 0.00 | 0.00 | 77 | 1007.7 |
| 20260509153034 | 13 | 283 | 3.2 | 9.7 | 0.00 | 0.00 | 0.00 | 78 | 1007.7 |
| 20260509151534 | 14 | 292 | 3.2 | 9.7 | 0.00 | 0.00 | 0.00 | 74 | 1007.8 |
| 20260509150029 | 14 | 198 | 3.2 | 9.7 | 0.00 | 0.00 | 0.00 | 75 | 1007.7 |
| 20260509144527 | 14 | 119 | 3.2 | 12.9 | 0.00 | 0.00 | 0.00 | 77 | 1007.7 |
| 20260509143025 | 13 | 155 | 3.2 | 11.3 | 0.00 | 0.00 | 0.00 | 78 | 1007.8 |
| 20260509141524 | 13 | 161 | 4.8 | 11.3 | 0.00 | 0.00 | 0.00 | 78 | 1007.8 |
| 20260509140029 | 13 | 161 | 6.4 | 14.5 | 0.00 | 0.00 | 0.00 | 79 | 1007.9 |
| 20260509134521 | 13 | 134 | 4.8 | 11.3 | 0.00 | 0.00 | 0.00 | 80 | 1008.0 |
| 20260509133019 | 12 | 157 | 4.8 | 12.9 | 0.00 | 0.00 | 0.00 | 81 | 1008.1 |
| 20260509131529 | 12 | 144 | 4.8 | 16.1 | 0.00 | 0.00 | 0.00 | 82 | 1008.3 |
| 20260509130023 | 12 | 221 | 4.8 | 16.1 | 0.00 | 0.00 | 0.00 | 82 | 1008.4 |
| 20260509124521 | 12 | 174 | 3.2 | 14.5 | 0.00 | 0.00 | 0.00 | 83 | 1008.4 |
| 20260509123011 | 11 | 151 | 3.2 | 19.3 | 0.00 | 0.00 | 0.00 | 84 | 1008.5 |
| 20260509121512 | 11 | 172 | 4.8 | 11.3 | 0.00 | 0.00 | 0.00 | 85 | 1008.7 |
| 20260509120007 | 11 | 138 | 3.2 | 11.3 | 0.00 | 0.00 | 0.00 | 86 | 1008.6 |
| 20260509114503 | 10 | 144 | 3.2 | 6.4 | 0.00 | 0.05 | 0.00 | 87 | 1008.6 |
| 20260509113102 | 10 | 148 | 3.2 | 8.0 | 0.00 | 0.05 | 0.00 | 88 | 1008.7 |
| 20260509113001 | 10 | 146 | 3.2 | 8.0 | 0.00 | 0.05 | 0.00 | 88 | 1008.7 |
| 20260509111606 | 9 | 153 | 3.2 | 8.0 | 0.00 | 0.05 | 0.00 | 88 | 1008.8 |
| 20260509110055 | 8 | 163 | 1.6 | 6.4 | 0.00 | 0.05 | 0.00 | 89 | 1008.7 |
| 20260509104553 | 8 | 164 | 1.6 | 6.4 | 0.00 | 0.10 | 0.00 | 89 | 1008.7 |
| 20260509103050 | 7 | 150 | 1.6 | 8.0 | 0.00 | 0.10 | 0.00 | 90 | 1008.7 |
| 20260509101551 | 7 | 150 | 1.6 | 4.8 | 0.00 | 0.10 | 0.00 | 89 | 1008.8 |
| 20260509100051 | 7 | 152 | 1.6 | 4.8 | 0.00 | 0.10 | 0.00 | 89 | 1008.8 |
| 20260509094551 | 7 | 151 | 1.6 | 4.8 | 0.00 | 0.13 | 0.00 | 88 | 1008.6 |
| 20260509093048 | 7 | 151 | 1.6 | 6.4 | 0.00 | 0.13 | 0.00 | 88 | 1008.6 |
| 20260509091547 | 7 | 151 | 1.6 | 6.4 | 0.00 | 0.13 | 0.00 | 88 | 1008.7 |
| 20260509084545 | 7 | 150 | 1.6 | 4.8 | 0.00 | 0.13 | 0.00 | 87 | 1008.8 |
| 20260509083050 | 7 | 148 | 3.2 | 6.4 | 0.00 | 0.13 | 0.00 | 86 | 1008.8 |
| 20260509081543 | 7 | 147 | 1.6 | 4.8 | 0.00 | 0.13 | 0.00 | 86 | 1008.9 |
| 20260509080041 | 7 | 148 | 3.2 | 8.0 | 0.00 | 0.13 | 0.00 | 86 | 1009.0 |
| 20260509074537 | 6 | 150 | 3.2 | 4.8 | 0.00 | 0.13 | 0.00 | 86 | 1009.2 |
| 20260509073038 | 6 | 150 | 1.6 | 4.8 | 0.00 | 0.13 | 0.00 | 85 | 1009.4 |
| 20260509071534 | 6 | 152 | 1.6 | 4.8 | 0.00 | 0.13 | 0.00 | 84 | 1009.4 |
| 20260509070036 | 6 | 152 | 1.6 | 4.8 | 0.00 | 0.13 | 0.00 | 83 | 1009.5 |
| 20260509064532 | 6 | 152 | 1.6 | 4.8 | 0.00 | 0.13 | 0.00 | 82 | 1009.6 |
| 20260509063033 | 6 | 153 | 1.6 | 6.4 | 0.00 | 0.13 | 0.00 | 79 | 1009.7 |
| 20260509061533 | 6 | 143 | 3.2 | 8.0 | 0.00 | 0.13 | 0.00 | 78 | 1010.0 |
| 20260509060025 | 6 | 152 | 3.2 | 9.7 | 0.00 | 0.13 | 0.00 | 76 | 1010.3 |
| 20260509054525 | 6 | 151 | 4.8 | 8.0 | 0.00 | 0.13 | 0.00 | 76 | 1010.4 |
| 20260509053021 | 6 | 156 | 3.2 | 8.0 | 0.00 | 0.13 | 0.00 | 76 | 1010.5 |
| 20260509051521 | 6 | 169 | 1.6 | 4.8 | 0.00 | 0.13 | 0.00 | 78 | 1010.7 |
| 20260509050016 | 5 | 169 | 1.6 | 4.8 | 0.00 | 0.13 | 0.00 | 77 | 1010.8 |
| 20260509044513 | 5 | 169 | 1.6 | 4.8 | 0.00 | 0.13 | 0.00 | 78 | 1011.0 |
| 20260509043011 | 5 | 170 | 1.6 | 4.8 | 0.00 | 0.13 | 0.00 | 79 | 1011.3 |
| 20260509041511 | 5 | 170 | 1.6 | 6.4 | 0.00 | 0.13 | 0.00 | 78 | 1011.3 |
| 20260509040007 | 5 | 171 | 3.2 | 6.4 | 0.00 | 0.13 | 0.00 | 79 | 1011.4 |
| 20260509034507 | 5 | 173 | 3.2 | 6.4 | 0.00 | 0.13 | 0.13 | 80 | 1011.5 |
| 20260509033007 | 5 | 176 | 3.2 | 4.8 | 0.00 | 0.13 | 0.13 | 79 | 1011.7 |
| 20260509031506 | 5 | 186 | 1.6 | 4.8 | 0.00 | 0.13 | 0.13 | 79 | 1011.8 |
| 20260509030006 | 6 | 199 | 1.6 | 4.8 | 0.00 | 0.13 | 0.13 | 78 | 1012.0 |
| 20260509024505 | 6 | 216 | 1.6 | 4.8 | 0.00 | 0.13 | 0.13 | 77 | 1012.0 |
| 20260509023005 | 6 | 216 | 1.6 | 3.2 | 0.00 | 0.13 | 0.13 | 75 | 1012.0 |
| 20260509021505 | 6 | 219 | 0.0 | 3.2 | 0.00 | 0.13 | 0.13 | 73 | 1011.9 |
| 20260509020004 | 7 | 226 | 1.6 | 3.2 | 0.00 | 0.13 | 0.13 | 72 | 1011.8 |
| 20260509014504 | 7 | 227 | 0.0 | 3.2 | 0.00 | 0.13 | 0.13 | 69 | 1011.7 |
| 20260509013004 | 8 | 227 | 0.0 | 3.2 | 0.00 | 0.13 | 0.13 | 66 | 1011.6 |
| 20260509011503 | 8 | 230 | 1.6 | 3.2 | 0.00 | 0.13 | 0.13 | 60 | 1011.6 |
| 20260509010002 | 9 | 232 | 1.6 | 3.2 | 0.00 | 0.13 | 0.13 | 57 | 1011.5 |
| 20260509004502 | 10 | 233 | 0.0 | 1.6 | 0.00 | 0.13 | 0.13 | 53 | 1011.4 |
| 20260509003002 | 11 | 234 | 0.0 | 3.2 | 0.00 | 0.13 | 0.13 | 47 | 1011.3 |
| 20260509001501 | 11 | 236 | 0.0 | 6.4 | 0.00 | 0.13 | 0.13 | 47 | 1011.2 |